UZAYTEM FTO


Yükleniyor...
LTFH 292150Z 11002KT CAVOK 12/11 Q1014 NOSIG

TAF LTFH 291940Z 2921/3006 VRB02KT 9999 FEW036 SCT100 BECMG 2921/2923 CAVOK
Satellite Rain Picture: TURKEY

Satellite Cloud Picture: TURKEY